createdAt,value
2022-07-30T00:02:04.262Z,14.72
2022-07-30T00:04:34.127Z,14.64
2022-07-30T00:07:05.658Z,14.67
2022-07-30T00:09:35.670Z,14.61
2022-07-30T00:12:08.281Z,14.48
2022-07-30T00:14:38.507Z,14.34
2022-07-30T00:17:08.776Z,14.57
2022-07-30T00:19:38.916Z,14.51
2022-07-30T00:22:09.527Z,14.47
2022-07-30T00:24:39.782Z,14.51
2022-07-30T00:27:09.885Z,14.39
2022-07-30T00:29:44.977Z,14.52
2022-07-30T00:32:15.607Z,14.51
2022-07-30T00:34:45.718Z,14.52
2022-07-30T00:37:15.813Z,14.56
2022-07-30T00:39:45.542Z,14.57
2022-07-30T00:42:15.837Z,14.51
2022-07-30T00:44:46.356Z,14.53
2022-07-30T00:47:16.411Z,14.58
2022-07-30T00:49:46.922Z,14.50
2022-07-30T00:52:17.222Z,14.61
2022-07-30T00:54:47.986Z,14.70
2022-07-30T00:57:18.052Z,14.69
2022-07-30T00:59:50.762Z,14.62
2022-07-30T01:02:21.053Z,14.59
2022-07-30T01:04:52.735Z,14.57
2022-07-30T01:07:24.001Z,14.59
2022-07-30T01:09:57.819Z,14.65
2022-07-30T01:12:29.159Z,14.66
2022-07-30T01:15:01.289Z,14.66
2022-07-30T01:17:31.530Z,14.50
2022-07-30T01:20:04.905Z,14.46
2022-07-30T01:23:00.865Z,14.44
2022-07-30T01:25:34.141Z,14.47
2022-07-30T01:28:11.963Z,14.28
2022-07-30T01:30:45.277Z,14.44
2022-07-30T01:33:18.484Z,14.41
2022-07-30T01:35:51.182Z,14.36
2022-07-30T01:38:24.270Z,14.33
2022-07-30T01:40:57.152Z,14.31
2022-07-30T01:43:28.588Z,14.32
2022-07-30T01:46:01.811Z,14.34
2022-07-30T01:48:34.867Z,14.32
2022-07-30T01:51:07.530Z,14.30
2022-07-30T01:53:41.996Z,14.24
2022-07-30T01:56:16.612Z,14.07
2022-07-30T01:58:51.597Z,14.11
2022-07-30T02:01:25.115Z,14.17
2022-07-30T02:04:03.420Z,14.08
2022-07-30T02:07:04.756Z,14.06
2022-07-30T02:09:47.352Z,14.06
2022-07-30T02:12:32.019Z,14.06
2022-07-30T02:15:22.003Z,14.11
2022-07-30T02:17:58.272Z,14.05
2022-07-30T02:20:33.445Z,14.07
2022-07-30T02:23:13.974Z,13.94
2022-07-30T02:25:49.061Z,14.08
2022-07-30T02:28:22.941Z,13.89
2022-07-30T02:30:55.851Z,14.07
2022-07-30T02:33:35.720Z,13.87
2022-07-30T02:36:13.578Z,13.99
2022-07-30T02:38:47.965Z,14.07
2022-07-30T02:41:20.625Z,14.14
2022-07-30T02:43:53.637Z,14.18
2022-07-30T02:46:26.485Z,13.68
2022-07-30T02:49:29.706Z,13.71
2022-07-30T02:52:01.368Z,13.55
2022-07-30T02:54:34.849Z,13.60
2022-07-30T02:57:07.739Z,13.64
2022-07-30T02:59:41.351Z,13.67
2022-07-30T03:02:14.857Z,13.73
2022-07-30T03:04:45.707Z,13.77
2022-07-30T03:07:21.209Z,13.80
2022-07-30T03:09:56.290Z,14.13
2022-07-30T03:12:30.521Z,13.91
2022-07-30T03:15:01.038Z,13.84
2022-07-30T03:17:39.342Z,13.86
2022-07-30T03:20:11.928Z,13.81
2022-07-30T03:22:48.756Z,14.13
2022-07-30T03:25:27.505Z,13.97
2022-07-30T03:28:02.107Z,13.64
2022-07-30T03:30:35.006Z,13.73
2022-07-30T03:33:06.912Z,13.60
2022-07-30T03:35:37.758Z,13.49
2022-07-30T03:38:08.973Z,13.85
2022-07-30T03:40:40.061Z,13.95
2022-07-30T03:43:32.352Z,13.75
2022-07-30T03:46:09.060Z,13.75
2022-07-30T03:48:43.249Z,13.77
2022-07-30T03:51:14.178Z,13.91
2022-07-30T03:53:50.295Z,13.83
2022-07-30T03:56:35.017Z,13.81
2022-07-30T03:59:06.433Z,13.77
2022-07-30T04:01:40.537Z,13.84
2022-07-30T04:04:49.161Z,13.59
2022-07-30T04:07:20.063Z,13.63
2022-07-30T04:09:50.167Z,13.43
2022-07-30T04:12:58.437Z,13.39
2022-07-30T04:16:35.555Z,13.22
2022-07-30T04:18:21.478Z,13.31
2022-07-30T04:20:55.401Z,13.31
2022-07-30T04:23:25.873Z,13.43
2022-07-30T04:25:57.035Z,13.42
2022-07-30T04:28:29.343Z,13.52
2022-07-30T04:31:00.604Z,13.51
2022-07-30T04:33:31.938Z,13.63
2022-07-30T04:36:12.859Z,13.54
2022-07-30T04:38:46.720Z,13.69
2022-07-30T04:41:17.131Z,13.58
2022-07-30T04:44:10.447Z,13.55
2022-07-30T04:46:49.494Z,13.42
2022-07-30T04:49:21.772Z,13.43
2022-07-30T04:51:53.366Z,13.41
2022-07-30T04:54:26.902Z,13.54
2022-07-30T04:56:57.475Z,13.53
2022-07-30T04:59:28.089Z,13.23
2022-07-30T05:02:02.416Z,13.34
2022-07-30T05:04:37.303Z,13.00
2022-07-30T05:07:08.664Z,12.98
2022-07-30T05:09:39.485Z,12.96
2022-07-30T05:12:13.634Z,12.81
2022-07-30T05:14:48.125Z,12.78
2022-07-30T05:17:20.560Z,12.72
2022-07-30T05:19:50.972Z,12.84
2022-07-30T05:22:22.677Z,12.54
2022-07-30T05:24:53.175Z,12.50
2022-07-30T05:27:23.207Z,12.40
2022-07-30T05:29:53.111Z,12.36
2022-07-30T05:32:27.094Z,12.21
2022-07-30T05:34:59.651Z,12.31
2022-07-30T05:37:30.824Z,12.24
2022-07-30T05:40:03.277Z,12.17
2022-07-30T05:42:52.527Z,12.03
2022-07-30T05:45:22.725Z,11.89
2022-07-30T05:47:53.581Z,12.04
2022-07-30T05:50:23.881Z,12.22
2022-07-30T05:52:54.442Z,12.04
2022-07-30T05:55:45.050Z,11.91
2022-07-30T05:58:38.692Z,11.74
2022-07-30T06:01:12.076Z,11.97
2022-07-30T06:03:43.318Z,12.06
2022-07-30T06:06:41.180Z,11.86
2022-07-30T06:09:11.872Z,12.09
2022-07-30T06:11:43.196Z,12.14
2022-07-30T06:14:13.773Z,12.11
2022-07-30T06:16:43.899Z,12.16
2022-07-30T06:19:19.558Z,12.11
2022-07-30T06:22:01.739Z,12.19
2022-07-30T06:24:43.259Z,12.20
2022-07-30T06:27:19.695Z,12.18
2022-07-30T06:29:50.130Z,12.17
2022-07-30T06:32:20.666Z,12.14
2022-07-30T06:34:58.674Z,12.17
2022-07-30T06:38:06.385Z,12.05
2022-07-30T06:40:25.763Z,11.73
2022-07-30T06:43:23.048Z,11.90
2022-07-30T06:46:02.087Z,11.97
2022-07-30T06:48:38.563Z,11.82
2022-07-30T06:51:08.982Z,11.68
2022-07-30T06:53:42.337Z,11.57
2022-07-30T06:56:16.850Z,11.54
2022-07-30T06:58:53.592Z,11.37
2022-07-30T07:01:45.132Z,11.57
2022-07-30T07:04:15.467Z,11.79
2022-07-30T07:06:46.042Z,11.97
2022-07-30T07:09:20.780Z,11.98
2022-07-30T07:12:02.668Z,12.00
2022-07-30T07:14:34.055Z,12.12
2022-07-30T07:17:05.341Z,12.25
2022-07-30T07:20:00.058Z,12.16
2022-07-30T07:22:39.150Z,12.36
2022-07-30T07:25:09.789Z,12.41
2022-07-30T07:27:40.362Z,12.32
2022-07-30T07:30:10.916Z,12.28
2022-07-30T07:32:43.263Z,12.25
2022-07-30T07:35:15.309Z,12.29
2022-07-30T07:37:50.213Z,12.20
2022-07-30T07:40:25.989Z,12.13
2022-07-30T07:42:56.540Z,11.61
2022-07-30T07:45:26.650Z,11.96
2022-07-30T07:48:06.630Z,11.92
2022-07-30T07:51:12.229Z,12.02
2022-07-30T07:53:49.200Z,11.96
2022-07-30T07:56:30.542Z,11.92
2022-07-30T07:59:03.284Z,11.71
2022-07-30T08:01:34.090Z,11.80
2022-07-30T08:04:30.743Z,11.68
2022-07-30T08:07:12.896Z,11.57
2022-07-30T08:10:09.225Z,11.48
2022-07-30T08:13:48.865Z,11.36
2022-07-30T08:16:20.299Z,11.38
2022-07-30T08:19:08.719Z,11.24
2022-07-30T08:21:53.748Z,11.19
2022-07-30T08:24:24.304Z,11.16
2022-07-30T08:26:56.458Z,11.05
2022-07-30T08:29:26.616Z,11.00
2022-07-30T08:31:57.323Z,10.74
2022-07-30T08:34:30.454Z,10.37
2022-07-30T08:37:01.061Z,10.41
2022-07-30T08:39:31.181Z,10.42
2022-07-30T08:42:01.562Z,10.19
2022-07-30T08:44:34.047Z,10.22
2022-07-30T08:47:05.804Z,10.34
2022-07-30T08:50:06.368Z,10.22
2022-07-30T08:52:40.293Z,10.47
2022-07-30T08:55:11.307Z,10.58
2022-07-30T08:57:43.246Z,10.33
2022-07-30T09:00:15.514Z,10.28
2022-07-30T09:02:46.033Z,10.25
2022-07-30T09:05:16.136Z,10.17
2022-07-30T09:07:46.018Z,10.05
2022-07-30T09:10:26.071Z,10.23
2022-07-30T09:12:57.041Z,10.14
2022-07-30T09:15:27.064Z,10.06
2022-07-30T09:17:58.230Z,9.99
2022-07-30T09:20:36.420Z,10.06
2022-07-30T09:23:10.530Z,10.00
2022-07-30T09:26:03.441Z,10.08
2022-07-30T09:28:48.991Z,10.04
2022-07-30T09:32:04.232Z,9.93
2022-07-30T09:34:53.212Z,9.83
2022-07-30T09:37:42.478Z,9.81
2022-07-30T09:40:32.206Z,9.76
2022-07-30T09:43:32.184Z,9.43
2022-07-30T09:46:14.621Z,9.58
2022-07-30T09:48:50.503Z,9.53
2022-07-30T09:51:56.461Z,9.72
2022-07-30T09:54:53.046Z,9.33
2022-07-30T09:57:27.914Z,9.47
2022-07-30T10:00:24.283Z,9.65
2022-07-30T10:03:38.497Z,9.63
2022-07-30T10:06:38.268Z,9.59
2022-07-30T10:09:28.611Z,9.58
2022-07-30T10:12:04.959Z,9.57
2022-07-30T10:14:47.558Z,9.45
2022-07-30T10:17:22.566Z,9.43
2022-07-30T10:20:14.286Z,9.49
2022-07-30T10:23:08.197Z,9.51
2022-07-30T10:25:48.835Z,9.49
2022-07-30T10:28:43.150Z,9.53
2022-07-30T10:31:49.490Z,9.76
2022-07-30T10:34:04.842Z,9.99
2022-07-30T10:36:37.051Z,9.86
2022-07-30T10:39:10.327Z,10.29
2022-07-30T10:41:59.112Z,10.13
2022-07-30T10:45:01.951Z,11.03
2022-07-30T10:47:40.495Z,11.09
2022-07-30T10:50:23.503Z,11.44
2022-07-30T10:52:55.826Z,12.16
2022-07-30T10:55:36.695Z,12.60
2022-07-30T10:58:22.933Z,12.88
2022-07-30T11:00:55.115Z,13.28
2022-07-30T11:03:41.567Z,13.53
2022-07-30T11:06:24.228Z,14.14
2022-07-30T11:08:57.206Z,14.11
2022-07-30T11:12:01.400Z,13.95
2022-07-30T11:14:49.255Z,14.02
2022-07-30T11:17:21.259Z,13.89
2022-07-30T11:20:22.213Z,14.20
2022-07-30T11:22:55.149Z,14.90
2022-07-30T11:25:50.625Z,15.00
2022-07-30T11:28:44.899Z,14.98
2022-07-30T11:31:48.739Z,14.93
2022-07-30T11:34:24.095Z,15.39
2022-07-30T11:37:19.010Z,15.37
2022-07-30T11:39:56.092Z,15.22
2022-07-30T11:42:31.631Z,14.88
2022-07-30T11:45:17.658Z,15.44
2022-07-30T11:47:48.415Z,15.88
2022-07-30T11:50:24.078Z,16.52
2022-07-30T11:52:56.327Z,17.17
2022-07-30T11:55:33.833Z,17.64
2022-07-30T11:58:07.107Z,18.22
2022-07-30T12:00:48.985Z,18.84
2022-07-30T12:03:21.333Z,19.25
2022-07-30T12:05:53.323Z,19.61
2022-07-30T12:08:35.826Z,19.80
2022-07-30T12:11:06.817Z,19.27
2022-07-30T12:13:44.555Z,19.25
2022-07-30T12:16:18.355Z,18.79
2022-07-30T12:18:49.688Z,19.08
2022-07-30T12:21:22.231Z,18.27
2022-07-30T12:23:59.069Z,18.77
2022-07-30T12:26:36.550Z,18.50
2022-07-30T12:29:11.280Z,19.32
2022-07-30T12:31:42.796Z,19.46
2022-07-30T12:34:29.272Z,20.89
2022-07-30T12:37:10.942Z,21.56
2022-07-30T12:39:40.976Z,21.69
2022-07-30T12:42:20.883Z,22.15
2022-07-30T12:44:51.440Z,22.16
2022-07-30T12:47:28.080Z,22.95
2022-07-30T12:50:01.392Z,23.37
2022-07-30T12:52:36.950Z,23.47
2022-07-30T12:55:10.940Z,23.74
2022-07-30T12:58:07.904Z,23.96
2022-07-30T13:00:53.799Z,24.08
2022-07-30T13:03:28.042Z,23.93
2022-07-30T13:05:59.010Z,23.98
2022-07-30T13:08:51.104Z,24.11
2022-07-30T13:11:26.193Z,24.01
2022-07-30T13:13:56.722Z,24.77
2022-07-30T13:16:26.729Z,24.90
2022-07-30T13:18:57.144Z,25.17
2022-07-30T13:21:27.384Z,25.16
2022-07-30T13:23:58.186Z,25.62
2022-07-30T13:26:30.593Z,26.03
2022-07-30T13:29:03.211Z,25.63
2022-07-30T13:31:43.074Z,25.12
2022-07-30T13:34:14.169Z,23.77
2022-07-30T13:36:45.005Z,23.60
2022-07-30T13:39:15.684Z,23.43
2022-07-30T13:41:45.254Z,22.53
2022-07-30T13:44:15.674Z,22.52
2022-07-30T13:46:45.221Z,21.42
2022-07-30T13:49:15.175Z,22.12
2022-07-30T13:51:45.828Z,21.97
2022-07-30T13:54:17.642Z,22.23
2022-07-30T13:56:48.615Z,23.29
2022-07-30T13:59:19.571Z,23.96
2022-07-30T14:01:50.171Z,23.29
2022-07-30T14:04:20.230Z,23.20
2022-07-30T14:06:50.750Z,23.22
2022-07-30T14:09:20.783Z,24.54
2022-07-30T14:11:51.439Z,23.84
2022-07-30T14:14:23.564Z,24.40
2022-07-30T14:16:54.256Z,24.33
2022-07-30T14:19:24.664Z,24.50
2022-07-30T14:21:55.755Z,23.49
2022-07-30T14:24:25.899Z,24.36
2022-07-30T14:26:58.312Z,23.28
2022-07-30T14:29:29.263Z,23.58
2022-07-30T14:31:59.886Z,23.96
2022-07-30T14:34:30.044Z,23.03
2022-07-30T14:37:00.829Z,22.72
2022-07-30T14:39:31.222Z,24.01
2022-07-30T14:42:01.807Z,24.12
2022-07-30T14:44:31.866Z,24.10
2022-07-30T14:47:02.568Z,25.08
2022-07-30T14:49:32.879Z,24.38
2022-07-30T14:52:03.627Z,24.20
2022-07-30T14:54:33.715Z,25.07
2022-07-30T14:57:05.029Z,25.67
2022-07-30T14:59:35.720Z,25.06
2022-07-30T15:02:10.501Z,26.00
2022-07-30T15:04:41.697Z,26.39
2022-07-30T15:07:14.137Z,25.18
2022-07-30T15:09:44.227Z,25.57
2022-07-30T15:12:23.576Z,25.67
2022-07-30T15:14:57.329Z,25.04
2022-07-30T15:17:31.107Z,23.68
2022-07-30T15:20:02.459Z,24.22
2022-07-30T15:22:33.273Z,25.19
2022-07-30T15:25:03.482Z,25.37
2022-07-30T15:27:34.638Z,26.54
2022-07-30T15:30:06.418Z,25.71
2022-07-30T15:32:37.167Z,24.66
2022-07-30T15:35:11.810Z,24.68
2022-07-30T15:37:44.075Z,26.02
2022-07-30T15:40:13.397Z,26.09
2022-07-30T15:42:43.860Z,24.84
2022-07-30T15:45:17.852Z,25.40
2022-07-30T15:47:48.764Z,24.79
2022-07-30T15:50:19.598Z,25.32
2022-07-30T15:52:50.190Z,26.56
2022-07-30T15:55:20.861Z,26.87
2022-07-30T15:57:50.939Z,27.87
2022-07-30T16:00:21.487Z,27.51
2022-07-30T16:02:51.689Z,26.73
2022-07-30T16:05:22.155Z,26.01
2022-07-30T16:07:51.995Z,26.38
2022-07-30T16:10:22.654Z,27.13
2022-07-30T16:12:52.728Z,26.41
2022-07-30T16:15:23.351Z,27.20
2022-07-30T16:17:53.635Z,26.51
2022-07-30T16:20:24.121Z,25.91
2022-07-30T16:22:53.428Z,26.57
2022-07-30T16:25:23.575Z,26.29
2022-07-30T16:27:54.346Z,26.53
2022-07-30T16:30:27.382Z,27.01
2022-07-30T16:32:58.091Z,27.63
2022-07-30T16:35:27.435Z,28.39
2022-07-30T16:38:03.683Z,27.51
2022-07-30T16:40:35.946Z,26.73
2022-07-30T16:43:06.000Z,26.68
2022-07-30T16:45:37.702Z,26.91
2022-07-30T16:48:07.956Z,27.94
2022-07-30T16:50:38.695Z,27.79
2022-07-30T16:53:13.748Z,27.59
2022-07-30T16:55:46.203Z,27.82
2022-07-30T16:58:16.311Z,28.16
2022-07-30T17:00:46.895Z,28.20
2022-07-30T17:03:20.177Z,27.05
2022-07-30T17:05:51.114Z,24.86
2022-07-30T17:08:25.163Z,25.61
2022-07-30T17:10:57.843Z,25.56
2022-07-30T17:13:27.900Z,26.89
2022-07-30T17:15:58.289Z,27.55
2022-07-30T17:18:28.500Z,28.18
2022-07-30T17:20:58.952Z,29.13
2022-07-30T17:23:29.015Z,29.62
2022-07-30T17:25:59.680Z,29.91
2022-07-30T17:28:29.636Z,30.44
2022-07-30T17:31:01.147Z,30.43
2022-07-30T17:33:31.266Z,30.07
2022-07-30T17:36:01.776Z,30.37
2022-07-30T17:38:31.859Z,30.36
2022-07-30T17:41:02.448Z,30.55
2022-07-30T17:43:32.499Z,30.39
2022-07-30T17:46:03.725Z,29.96
2022-07-30T17:48:33.681Z,30.30
2022-07-30T17:51:04.283Z,29.49
2022-07-30T17:53:34.992Z,29.05
2022-07-30T17:56:07.070Z,28.71
2022-07-30T17:58:56.716Z,28.72
2022-07-30T18:01:28.061Z,28.95
2022-07-30T18:03:58.141Z,29.35
2022-07-30T18:06:28.128Z,29.44
2022-07-30T18:08:59.114Z,29.12
2022-07-30T18:11:29.237Z,26.72
2022-07-30T18:13:59.702Z,28.09
2022-07-30T18:16:34.551Z,28.01
2022-07-30T18:19:05.220Z,29.22
2022-07-30T18:21:35.672Z,28.23
2022-07-30T18:24:09.098Z,27.39
2022-07-30T18:26:43.347Z,26.46
2022-07-30T18:29:14.124Z,26.47
2022-07-30T18:31:44.279Z,26.38
2022-07-30T18:34:14.778Z,26.55
2022-07-30T18:36:44.811Z,27.87
2022-07-30T18:39:15.175Z,26.87
2022-07-30T18:41:44.857Z,26.28
2022-07-30T18:44:15.140Z,26.30
2022-07-30T18:46:44.990Z,24.48
2022-07-30T18:49:35.718Z,24.30
2022-07-30T18:52:05.714Z,24.91
2022-07-30T18:54:36.983Z,25.76
2022-07-30T18:57:11.240Z,25.34
2022-07-30T18:59:44.491Z,25.63
2022-07-30T19:02:14.499Z,24.51
2022-07-30T19:04:45.031Z,24.88
2022-07-30T19:07:15.055Z,25.92
2022-07-30T19:09:46.235Z,26.00
2022-07-30T19:12:16.789Z,26.43
2022-07-30T19:14:46.931Z,26.66
2022-07-30T19:17:17.407Z,26.94
2022-07-30T19:19:47.499Z,26.73
2022-07-30T19:22:18.471Z,26.96
2022-07-30T19:25:00.041Z,26.86
2022-07-30T19:27:29.779Z,26.95
2022-07-30T19:30:00.067Z,26.60
2022-07-30T19:32:29.402Z,26.42
2022-07-30T19:34:59.886Z,25.22
2022-07-30T19:37:30.379Z,25.98
2022-07-30T19:40:06.109Z,25.92
2022-07-30T19:42:36.642Z,26.00
2022-07-30T19:45:13.161Z,26.00
2022-07-30T19:47:43.917Z,25.30
2022-07-30T19:50:16.924Z,25.32
2022-07-30T19:52:51.373Z,24.97
2022-07-30T19:58:18.577Z,23.74
2022-07-30T20:00:50.039Z,23.75
2022-07-30T20:03:25.780Z,23.49
2022-07-30T20:05:59.871Z,23.44
2022-07-30T20:08:30.443Z,23.28
2022-07-30T20:11:02.484Z,23.01
2022-07-30T20:13:45.155Z,22.25
2022-07-30T20:16:21.899Z,22.28
2022-07-30T20:18:52.410Z,21.81
2022-07-30T20:22:06.980Z,21.17
2022-07-30T20:24:12.498Z,20.98
2022-07-30T20:26:47.345Z,20.49
2022-07-30T20:29:19.299Z,20.23
2022-07-30T20:31:51.550Z,19.70
2022-07-30T20:34:25.866Z,19.44
2022-07-30T20:36:57.708Z,19.01
2022-07-30T20:39:44.328Z,18.88
2022-07-30T20:42:15.267Z,18.75
2022-07-30T20:44:50.673Z,18.36
2022-07-30T20:47:34.628Z,18.13
2022-07-30T20:50:10.896Z,17.84
2022-07-30T20:52:46.474Z,17.55
2022-07-30T20:55:18.664Z,17.32
2022-07-30T20:58:00.373Z,17.06
2022-07-30T21:00:49.670Z,16.08
2022-07-30T21:03:21.722Z,16.04
2022-07-30T21:05:52.745Z,16.06
2022-07-30T21:08:25.083Z,15.93
2022-07-30T21:10:56.694Z,15.76
2022-07-30T21:13:26.739Z,15.47
2022-07-30T21:16:02.532Z,15.08
2022-07-30T21:18:34.000Z,14.75
2022-07-30T21:21:04.901Z,14.61
2022-07-30T21:23:35.845Z,14.55
2022-07-30T21:26:13.321Z,14.43
2022-07-30T21:28:43.554Z,14.24
2022-07-30T21:31:14.325Z,14.25
2022-07-30T21:33:44.643Z,14.09
2022-07-30T21:36:16.194Z,13.92
2022-07-30T21:38:46.202Z,13.89
2022-07-30T21:41:17.714Z,13.86
2022-07-30T21:43:49.392Z,13.54
2022-07-30T21:46:26.881Z,13.70
2022-07-30T21:48:59.398Z,13.70
2022-07-30T21:51:31.260Z,13.44
2022-07-30T21:54:02.497Z,13.46
2022-07-30T21:56:41.571Z,13.42
2022-07-30T21:59:13.891Z,13.34
2022-07-30T22:01:47.732Z,13.20
2022-07-30T22:04:18.186Z,13.14
2022-07-30T22:06:49.020Z,13.06
2022-07-30T22:09:33.930Z,13.09
2022-07-30T22:12:09.376Z,13.04
2022-07-30T22:14:42.312Z,12.99
2022-07-30T22:17:22.399Z,12.97
2022-07-30T22:19:55.547Z,12.91
2022-07-30T22:22:28.750Z,12.99
2022-07-30T22:25:00.385Z,13.09
2022-07-30T22:27:40.258Z,13.14
2022-07-30T22:30:21.686Z,13.14
2022-07-30T22:32:53.210Z,13.04
2022-07-30T22:35:33.639Z,12.98
2022-07-30T22:38:12.076Z,12.99
2022-07-30T22:40:42.774Z,12.87
2022-07-30T22:43:15.956Z,12.80
2022-07-30T22:45:49.376Z,12.77
2022-07-30T22:48:26.772Z,12.88
2022-07-30T22:50:58.513Z,12.82
2022-07-30T22:54:11.403Z,12.90
2022-07-30T22:56:23.744Z,12.86
2022-07-30T22:58:54.630Z,12.84
2022-07-30T23:01:24.933Z,12.84
2022-07-30T23:03:56.508Z,12.83
2022-07-30T23:06:26.666Z,12.68
2022-07-30T23:08:57.900Z,12.70
2022-07-30T23:11:37.281Z,12.62
2022-07-30T23:12:15.410Z,24.37
2022-07-30T23:14:08.935Z,12.76
2022-07-30T23:16:39.221Z,12.77
2022-07-30T23:19:14.003Z,12.69
2022-07-30T23:21:52.283Z,12.62
2022-07-30T23:24:25.824Z,12.43
2022-07-30T23:26:55.907Z,12.47
2022-07-30T23:29:26.375Z,12.18
2022-07-30T23:31:57.804Z,12.00
2022-07-30T23:34:28.318Z,12.09
2022-07-30T23:36:58.401Z,12.46
2022-07-30T23:39:28.854Z,12.54
2022-07-30T23:41:58.889Z,12.37
2022-07-30T23:44:36.783Z,12.52
2022-07-30T23:47:07.338Z,12.18
2022-07-30T23:49:37.861Z,12.08
2022-07-30T23:52:08.044Z,12.22
2022-07-30T23:54:38.662Z,12.31
2022-07-30T23:57:08.766Z,12.25
2022-07-30T23:59:41.686Z,12.53
